Austinville, Iowa
Current Conditions -  °F | °C
As of 4:55 PM on Thursday 18 Dec 2014 (Local Time) from KIFA Reporting Station
Overcast Overcast  
Wind Chill: 24°   Ceiling: 4800
Heat Index: 24°   Visibility: 10mi
Dew Point: 19°   Wind: 0mph
Humidity: 78%   Direction: NA
Pressure: 30.25"   Gusts: NA
Location:  42.59°N, 92.96°W
Report Text: KIFA 182255Z AUTO 00000KT 10SM OVC048 M04/M07 A3025 RMK AO2 T10421075
Loading
Personal Weather Stations






























Interactive Weather Map New forecast layout! Learn more

10-Day Weather Forecast

Advertisements
Track Severe Weather on mobile